sensor_id;sensor_type;location;lat;lon;timestamp;temperature;humidity
15765;DHT22;7983;50.744;7.086;2022-10-29T00:01:54;18.00;99.90
15765;DHT22;7983;50.744;7.086;2022-10-29T00:04:22;18.10;99.90
15765;DHT22;7983;50.744;7.086;2022-10-29T00:06:47;18.10;99.90
15765;DHT22;7983;50.744;7.086;2022-10-29T00:09:16;18.10;99.90
15765;DHT22;7983;50.744;7.086;2022-10-29T00:11:44;18.10;99.90
15765;DHT22;7983;50.744;7.086;2022-10-29T00:14:12;18.10;99.90
15765;DHT22;7983;50.744;7.086;2022-10-29T00:16:38;18.10;99.90
15765;DHT22;7983;50.744;7.086;2022-10-29T00:19:04;18.20;99.90
15765;DHT22;7983;50.744;7.086;2022-10-29T00:21:30;18.20;99.90
15765;DHT22;7983;50.744;7.086;2022-10-29T00:23:57;18.20;99.90
15765;DHT22;7983;50.744;7.086;2022-10-29T00:26:23;18.20;99.90
15765;DHT22;7983;50.744;7.086;2022-10-29T00:28:53;18.20;99.90
15765;DHT22;7983;50.744;7.086;2022-10-29T00:31:22;18.20;99.90
15765;DHT22;7983;50.744;7.086;2022-10-29T00:33:54;18.20;99.90
15765;DHT22;7983;50.744;7.086;2022-10-29T00:36:27;18.20;99.90
15765;DHT22;7983;50.744;7.086;2022-10-29T00:38:53;18.20;99.90
15765;DHT22;7983;50.744;7.086;2022-10-29T00:41:24;18.20;99.90
15765;DHT22;7983;50.744;7.086;2022-10-29T00:46:51;18.20;99.90
15765;DHT22;7983;50.744;7.086;2022-10-29T00:49:18;18.20;99.90
15765;DHT22;7983;50.744;7.086;2022-10-29T00:51:45;18.20;99.90
15765;DHT22;7983;50.744;7.086;2022-10-29T00:54:13;18.20;99.90
15765;DHT22;7983;50.744;7.086;2022-10-29T00:56:48;18.20;99.90
15765;DHT22;7983;50.744;7.086;2022-10-29T00:59:16;18.20;99.90
15765;DHT22;7983;50.744;7.086;2022-10-29T01:01:43;18.20;99.90
15765;DHT22;7983;50.744;7.086;2022-10-29T01:04:12;18.10;99.90
15765;DHT22;7983;50.744;7.086;2022-10-29T01:06:38;18.10;99.90
15765;DHT22;7983;50.744;7.086;2022-10-29T01:09:04;18.10;99.90
15765;DHT22;7983;50.744;7.086;2022-10-29T01:14:51;18.10;99.90
15765;DHT22;7983;50.744;7.086;2022-10-29T01:17:48;18.10;99.90
15765;DHT22;7983;50.744;7.086;2022-10-29T01:31:34;18.00;99.90
15765;DHT22;7983;50.744;7.086;2022-10-29T01:34:11;18.00;99.90
15765;DHT22;7983;50.744;7.086;2022-10-29T01:39:25;17.90;99.90
15765;DHT22;7983;50.744;7.086;2022-10-29T01:42:18;17.90;99.90
15765;DHT22;7983;50.744;7.086;2022-10-29T01:44:50;17.90;99.90
15765;DHT22;7983;50.744;7.086;2022-10-29T01:47:19;17.80;99.90
15765;DHT22;7983;50.744;7.086;2022-10-29T01:49:52;17.80;99.90
15765;DHT22;7983;50.744;7.086;2022-10-29T01:52:22;17.80;99.90
15765;DHT22;7983;50.744;7.086;2022-10-29T01:54:56;17.70;99.90
15765;DHT22;7983;50.744;7.086;2022-10-29T01:59:54;17.60;99.90
15765;DHT22;7983;50.744;7.086;2022-10-29T02:02:24;17.60;99.90
15765;DHT22;7983;50.744;7.086;2022-10-29T02:10:21;17.60;99.90
15765;DHT22;7983;50.744;7.086;2022-10-29T02:12:52;17.60;99.90
15765;DHT22;7983;50.744;7.086;2022-10-29T02:15:19;17.50;99.90
15765;DHT22;7983;50.744;7.086;2022-10-29T02:17:48;17.50;99.90
15765;DHT22;7983;50.744;7.086;2022-10-29T02:20:14;17.50;99.90
15765;DHT22;7983;50.744;7.086;2022-10-29T02:22:43;17.50;99.90
15765;DHT22;7983;50.744;7.086;2022-10-29T02:25:11;17.50;99.90
15765;DHT22;7983;50.744;7.086;2022-10-29T02:27:36;17.50;99.90
15765;DHT22;7983;50.744;7.086;2022-10-29T02:30:05;17.50;99.90
15765;DHT22;7983;50.744;7.086;2022-10-29T02:32:30;17.50;99.90
15765;DHT22;7983;50.744;7.086;2022-10-29T02:34:58;17.50;99.90
15765;DHT22;7983;50.744;7.086;2022-10-29T02:37:28;17.50;99.90
15765;DHT22;7983;50.744;7.086;2022-10-29T02:39:54;17.50;99.90
15765;DHT22;7983;50.744;7.086;2022-10-29T02:42:22;17.40;99.90
15765;DHT22;7983;50.744;7.086;2022-10-29T02:44:54;17.40;99.90
15765;DHT22;7983;50.744;7.086;2022-10-29T02:47:20;17.40;99.90
15765;DHT22;7983;50.744;7.086;2022-10-29T02:49:50;17.40;99.90
15765;DHT22;7983;50.744;7.086;2022-10-29T02:52:16;17.40;99.90
15765;DHT22;7983;50.744;7.086;2022-10-29T02:54:41;17.40;99.90
15765;DHT22;7983;50.744;7.086;2022-10-29T02:57:10;17.30;99.90
15765;DHT22;7983;50.744;7.086;2022-10-29T02:59:37;17.40;99.90
15765;DHT22;7983;50.744;7.086;2022-10-29T03:02:06;17.30;99.90
15765;DHT22;7983;50.744;7.086;2022-10-29T03:04:31;17.30;99.90
15765;DHT22;7983;50.744;7.086;2022-10-29T03:07:01;17.20;99.90
15765;DHT22;7983;50.744;7.086;2022-10-29T03:09:29;17.20;99.90
15765;DHT22;7983;50.744;7.086;2022-10-29T03:11:56;17.20;99.90
15765;DHT22;7983;50.744;7.086;2022-10-29T03:14:22;17.10;99.90
15765;DHT22;7983;50.744;7.086;2022-10-29T03:16:48;17.10;99.90
15765;DHT22;7983;50.744;7.086;2022-10-29T03:19:13;17.00;99.90
15765;DHT22;7983;50.744;7.086;2022-10-29T03:21:39;17.00;99.90
15765;DHT22;7983;50.744;7.086;2022-10-29T03:24:07;17.00;99.90
15765;DHT22;7983;50.744;7.086;2022-10-29T03:26:32;17.00;99.90
15765;DHT22;7983;50.744;7.086;2022-10-29T03:28:58;17.00;99.90
15765;DHT22;7983;50.744;7.086;2022-10-29T03:31:24;16.90;99.90
15765;DHT22;7983;50.744;7.086;2022-10-29T03:33:49;16.90;99.90
15765;DHT22;7983;50.744;7.086;2022-10-29T03:36:15;16.90;99.90
15765;DHT22;7983;50.744;7.086;2022-10-29T03:38:45;16.90;99.90
15765;DHT22;7983;50.744;7.086;2022-10-29T03:41:11;16.90;99.90
15765;DHT22;7983;50.744;7.086;2022-10-29T03:43:38;16.90;99.90
15765;DHT22;7983;50.744;7.086;2022-10-29T03:46:05;16.90;99.90
15765;DHT22;7983;50.744;7.086;2022-10-29T03:48:33;16.90;99.90
15765;DHT22;7983;50.744;7.086;2022-10-29T03:51:01;16.90;99.90
15765;DHT22;7983;50.744;7.086;2022-10-29T03:53:30;16.90;99.90
15765;DHT22;7983;50.744;7.086;2022-10-29T03:55:56;16.90;99.90
15765;DHT22;7983;50.744;7.086;2022-10-29T03:58:22;16.90;99.90
15765;DHT22;7983;50.744;7.086;2022-10-29T04:01:02;16.80;99.90
15765;DHT22;7983;50.744;7.086;2022-10-29T04:03:32;16.80;99.90
15765;DHT22;7983;50.744;7.086;2022-10-29T04:06:00;16.80;99.90
15765;DHT22;7983;50.744;7.086;2022-10-29T04:08:26;16.90;99.90
15765;DHT22;7983;50.744;7.086;2022-10-29T04:10:52;16.80;99.90
15765;DHT22;7983;50.744;7.086;2022-10-29T04:13:18;16.80;99.90
15765;DHT22;7983;50.744;7.086;2022-10-29T04:15:44;16.90;99.90
15765;DHT22;7983;50.744;7.086;2022-10-29T04:18:10;16.90;99.90
15765;DHT22;7983;50.744;7.086;2022-10-29T04:20:37;16.80;99.90
15765;DHT22;7983;50.744;7.086;2022-10-29T04:23:06;16.90;99.90
15765;DHT22;7983;50.744;7.086;2022-10-29T04:25:31;16.90;99.90
15765;DHT22;7983;50.744;7.086;2022-10-29T04:27:57;17.00;99.90
15765;DHT22;7983;50.744;7.086;2022-10-29T04:30:25;17.00;99.90
15765;DHT22;7983;50.744;7.086;2022-10-29T04:32:55;17.00;99.90
15765;DHT22;7983;50.744;7.086;2022-10-29T04:35:21;17.00;99.90
15765;DHT22;7983;50.744;7.086;2022-10-29T04:37:49;17.00;99.90
15765;DHT22;7983;50.744;7.086;2022-10-29T04:40:14;17.10;99.90
15765;DHT22;7983;50.744;7.086;2022-10-29T04:42:42;17.10;99.90
15765;DHT22;7983;50.744;7.086;2022-10-29T04:45:08;17.10;99.90
15765;DHT22;7983;50.744;7.086;2022-10-29T04:47:34;17.10;99.90
15765;DHT22;7983;50.744;7.086;2022-10-29T04:49:59;17.20;99.90
15765;DHT22;7983;50.744;7.086;2022-10-29T04:52:25;17.20;99.90
15765;DHT22;7983;50.744;7.086;2022-10-29T04:54:51;17.20;99.90
15765;DHT22;7983;50.744;7.086;2022-10-29T04:57:19;17.20;99.90
15765;DHT22;7983;50.744;7.086;2022-10-29T04:59:47;17.20;99.90
15765;DHT22;7983;50.744;7.086;2022-10-29T05:02:12;17.20;99.90
15765;DHT22;7983;50.744;7.086;2022-10-29T05:04:38;17.20;99.90
15765;DHT22;7983;50.744;7.086;2022-10-29T05:07:03;17.20;99.90
15765;DHT22;7983;50.744;7.086;2022-10-29T05:09:31;17.20;99.90
15765;DHT22;7983;50.744;7.086;2022-10-29T05:11:57;17.20;99.90
15765;DHT22;7983;50.744;7.086;2022-10-29T05:14:23;17.20;99.90
15765;DHT22;7983;50.744;7.086;2022-10-29T05:16:51;17.20;99.90
15765;DHT22;7983;50.744;7.086;2022-10-29T05:19:16;17.20;99.90
15765;DHT22;7983;50.744;7.086;2022-10-29T05:21:42;17.20;99.90
15765;DHT22;7983;50.744;7.086;2022-10-29T05:24:07;17.20;99.90
15765;DHT22;7983;50.744;7.086;2022-10-29T05:26:33;17.20;99.90
15765;DHT22;7983;50.744;7.086;2022-10-29T05:28:59;17.20;99.90
15765;DHT22;7983;50.744;7.086;2022-10-29T05:31:27;17.30;99.90
15765;DHT22;7983;50.744;7.086;2022-10-29T05:33:52;17.30;99.90
15765;DHT22;7983;50.744;7.086;2022-10-29T05:36:20;17.30;99.90
15765;DHT22;7983;50.744;7.086;2022-10-29T05:38:46;17.30;99.90
15765;DHT22;7983;50.744;7.086;2022-10-29T05:41:11;17.30;99.90
15765;DHT22;7983;50.744;7.086;2022-10-29T05:43:37;17.40;99.90
15765;DHT22;7983;50.744;7.086;2022-10-29T05:46:03;17.30;99.90
15765;DHT22;7983;50.744;7.086;2022-10-29T05:48:30;17.40;99.90
15765;DHT22;7983;50.744;7.086;2022-10-29T05:50:56;17.40;99.90
15765;DHT22;7983;50.744;7.086;2022-10-29T05:53:23;17.40;99.90
15765;DHT22;7983;50.744;7.086;2022-10-29T05:55:49;17.40;99.90
15765;DHT22;7983;50.744;7.086;2022-10-29T05:58:17;17.40;99.90
15765;DHT22;7983;50.744;7.086;2022-10-29T06:00:43;17.50;99.90
15765;DHT22;7983;50.744;7.086;2022-10-29T06:03:18;17.50;99.90
15765;DHT22;7983;50.744;7.086;2022-10-29T06:05:47;17.50;99.90
15765;DHT22;7983;50.744;7.086;2022-10-29T06:08:16;17.60;99.90
15765;DHT22;7983;50.744;7.086;2022-10-29T06:10:42;17.60;99.90
15765;DHT22;7983;50.744;7.086;2022-10-29T06:13:11;17.60;99.90
15765;DHT22;7983;50.744;7.086;2022-10-29T06:15:37;17.60;99.90
15765;DHT22;7983;50.744;7.086;2022-10-29T06:18:05;17.70;99.90
15765;DHT22;7983;50.744;7.086;2022-10-29T06:20:31;17.70;99.90
15765;DHT22;7983;50.744;7.086;2022-10-29T06:22:57;17.70;99.90
15765;DHT22;7983;50.744;7.086;2022-10-29T06:25:26;17.70;99.90
15765;DHT22;7983;50.744;7.086;2022-10-29T06:28:05;17.70;99.90
15765;DHT22;7983;50.744;7.086;2022-10-29T06:30:32;17.70;99.90
15765;DHT22;7983;50.744;7.086;2022-10-29T06:32:59;17.70;99.90
15765;DHT22;7983;50.744;7.086;2022-10-29T06:35:25;17.70;99.90
15765;DHT22;7983;50.744;7.086;2022-10-29T06:37:51;17.70;99.90
15765;DHT22;7983;50.744;7.086;2022-10-29T06:40:19;17.70;99.90
15765;DHT22;7983;50.744;7.086;2022-10-29T06:42:45;17.70;99.90
15765;DHT22;7983;50.744;7.086;2022-10-29T06:45:11;17.70;99.90
15765;DHT22;7983;50.744;7.086;2022-10-29T06:47:39;17.70;99.90
15765;DHT22;7983;50.744;7.086;2022-10-29T06:50:07;17.80;99.90
15765;DHT22;7983;50.744;7.086;2022-10-29T06:52:36;17.80;99.90
15765;DHT22;7983;50.744;7.086;2022-10-29T06:55:02;17.80;99.90
15765;DHT22;7983;50.744;7.086;2022-10-29T06:57:31;17.90;99.90
15765;DHT22;7983;50.744;7.086;2022-10-29T06:59:56;17.90;99.90
15765;DHT22;7983;50.744;7.086;2022-10-29T07:02:27;17.90;99.90
15765;DHT22;7983;50.744;7.086;2022-10-29T07:04:52;18.00;99.90
15765;DHT22;7983;50.744;7.086;2022-10-29T07:07:18;18.00;99.90
15765;DHT22;7983;50.744;7.086;2022-10-29T07:09:48;18.00;99.90
15765;DHT22;7983;50.744;7.086;2022-10-29T07:12:14;18.00;99.90
15765;DHT22;7983;50.744;7.086;2022-10-29T07:14:39;18.10;99.90
15765;DHT22;7983;50.744;7.086;2022-10-29T07:17:07;18.10;99.90
15765;DHT22;7983;50.744;7.086;2022-10-29T07:19:38;18.10;99.90
15765;DHT22;7983;50.744;7.086;2022-10-29T07:22:06;18.20;99.90
15765;DHT22;7983;50.744;7.086;2022-10-29T07:24:36;18.20;99.90
15765;DHT22;7983;50.744;7.086;2022-10-29T07:27:04;18.20;99.90
15765;DHT22;7983;50.744;7.086;2022-10-29T07:29:31;18.20;99.90
15765;DHT22;7983;50.744;7.086;2022-10-29T07:31:59;18.20;99.90
15765;DHT22;7983;50.744;7.086;2022-10-29T07:34:25;18.20;99.90
15765;DHT22;7983;50.744;7.086;2022-10-29T07:36:50;18.30;99.90
15765;DHT22;7983;50.744;7.086;2022-10-29T07:39:18;18.30;99.90
15765;DHT22;7983;50.744;7.086;2022-10-29T07:41:47;18.30;99.90
15765;DHT22;7983;50.744;7.086;2022-10-29T07:44:13;18.30;99.90
15765;DHT22;7983;50.744;7.086;2022-10-29T07:46:38;18.40;99.90
15765;DHT22;7983;50.744;7.086;2022-10-29T07:49:04;18.40;99.90
15765;DHT22;7983;50.744;7.086;2022-10-29T07:51:30;18.40;99.90
15765;DHT22;7983;50.744;7.086;2022-10-29T07:53:55;18.40;99.90
15765;DHT22;7983;50.744;7.086;2022-10-29T07:56:21;18.40;99.90
15765;DHT22;7983;50.744;7.086;2022-10-29T07:58:49;18.40;99.90
15765;DHT22;7983;50.744;7.086;2022-10-29T08:01:14;18.50;99.90
15765;DHT22;7983;50.744;7.086;2022-10-29T08:03:40;18.50;99.90
15765;DHT22;7983;50.744;7.086;2022-10-29T08:06:06;18.50;99.90
15765;DHT22;7983;50.744;7.086;2022-10-29T08:08:33;18.50;99.90
15765;DHT22;7983;50.744;7.086;2022-10-29T08:11:01;18.60;99.90
15765;DHT22;7983;50.744;7.086;2022-10-29T08:13:27;18.60;99.90
15765;DHT22;7983;50.744;7.086;2022-10-29T08:15:52;18.60;99.90
15765;DHT22;7983;50.744;7.086;2022-10-29T08:18:18;18.70;99.90
15765;DHT22;7983;50.744;7.086;2022-10-29T08:20:44;18.70;99.90
15765;DHT22;7983;50.744;7.086;2022-10-29T08:23:10;18.80;99.90
15765;DHT22;7983;50.744;7.086;2022-10-29T08:25:40;18.90;99.90
15765;DHT22;7983;50.744;7.086;2022-10-29T08:28:10;18.90;99.90
15765;DHT22;7983;50.744;7.086;2022-10-29T08:30:41;19.00;99.90
15765;DHT22;7983;50.744;7.086;2022-10-29T08:33:10;19.00;99.90
15765;DHT22;7983;50.744;7.086;2022-10-29T08:35:36;19.00;99.90
15765;DHT22;7983;50.744;7.086;2022-10-29T08:38:01;19.10;99.90
15765;DHT22;7983;50.744;7.086;2022-10-29T08:40:30;19.20;99.90
15765;DHT22;7983;50.744;7.086;2022-10-29T08:45:50;19.30;99.90
15765;DHT22;7983;50.744;7.086;2022-10-29T08:51:52;19.40;99.90
15765;DHT22;7983;50.744;7.086;2022-10-29T08:53:55;19.50;99.90
15765;DHT22;7983;50.744;7.086;2022-10-29T08:56:36;19.50;99.90
15765;DHT22;7983;50.744;7.086;2022-10-29T08:59:13;19.60;99.90
15765;DHT22;7983;50.744;7.086;2022-10-29T09:01:40;19.60;99.90
15765;DHT22;7983;50.744;7.086;2022-10-29T09:18:45;20.10;99.90
15765;DHT22;7983;50.744;7.086;2022-10-29T09:26:57;20.30;99.90
15765;DHT22;7983;50.744;7.086;2022-10-29T09:32:25;20.90;99.90
15765;DHT22;7983;50.744;7.086;2022-10-29T09:35:04;21.10;99.90
15765;DHT22;7983;50.744;7.086;2022-10-29T09:37:46;21.20;99.90
15765;DHT22;7983;50.744;7.086;2022-10-29T09:42:52;21.20;99.90
15765;DHT22;7983;50.744;7.086;2022-10-29T09:45:22;21.20;99.90
15765;DHT22;7983;50.744;7.086;2022-10-29T09:48:11;21.20;99.90
15765;DHT22;7983;50.744;7.086;2022-10-29T09:53:24;21.10;99.90
15765;DHT22;7983;50.744;7.086;2022-10-29T09:55:49;21.10;99.90
15765;DHT22;7983;50.744;7.086;2022-10-29T09:58:23;21.10;99.90
15765;DHT22;7983;50.744;7.086;2022-10-29T10:00:50;21.10;99.90
15765;DHT22;7983;50.744;7.086;2022-10-29T10:03:22;21.20;99.90
15765;DHT22;7983;50.744;7.086;2022-10-29T10:06:01;21.20;99.90
15765;DHT22;7983;50.744;7.086;2022-10-29T10:08:30;21.20;99.90
15765;DHT22;7983;50.744;7.086;2022-10-29T10:11:03;21.20;99.90
15765;DHT22;7983;50.744;7.086;2022-10-29T10:13:33;21.30;99.90
15765;DHT22;7983;50.744;7.086;2022-10-29T10:16:02;21.30;99.90
15765;DHT22;7983;50.744;7.086;2022-10-29T10:25:58;21.40;99.90
15765;DHT22;7983;50.744;7.086;2022-10-29T10:28:31;21.50;99.90
15765;DHT22;7983;50.744;7.086;2022-10-29T10:33:29;21.60;99.90
15765;DHT22;7983;50.744;7.086;2022-10-29T10:36:00;21.70;99.90
15765;DHT22;7983;50.744;7.086;2022-10-29T10:38:26;21.70;99.90
15765;DHT22;7983;50.744;7.086;2022-10-29T10:41:07;21.70;99.90
15765;DHT22;7983;50.744;7.086;2022-10-29T10:43:33;21.80;99.90
15765;DHT22;7983;50.744;7.086;2022-10-29T10:46:04;21.80;99.90
15765;DHT22;7983;50.744;7.086;2022-10-29T10:48:37;21.90;99.90
15765;DHT22;7983;50.744;7.086;2022-10-29T10:51:24;21.90;99.90
15765;DHT22;7983;50.744;7.086;2022-10-29T10:53:51;22.00;99.90
15765;DHT22;7983;50.744;7.086;2022-10-29T10:56:19;22.00;99.90
15765;DHT22;7983;50.744;7.086;2022-10-29T10:58:52;22.00;99.90
15765;DHT22;7983;50.744;7.086;2022-10-29T11:01:30;22.00;99.90
15765;DHT22;7983;50.744;7.086;2022-10-29T11:06:40;22.00;99.90
15765;DHT22;7983;50.744;7.086;2022-10-29T11:14:38;22.00;99.90
15765;DHT22;7983;50.744;7.086;2022-10-29T11:17:37;22.00;99.90
15765;DHT22;7983;50.744;7.086;2022-10-29T11:20:12;22.00;99.90
15765;DHT22;7983;50.744;7.086;2022-10-29T11:22:51;22.00;99.90
15765;DHT22;7983;50.744;7.086;2022-10-29T11:25:25;22.10;99.90
15765;DHT22;7983;50.744;7.086;2022-10-29T11:30:42;22.10;99.90
15765;DHT22;7983;50.744;7.086;2022-10-29T11:33:32;22.20;99.90
15765;DHT22;7983;50.744;7.086;2022-10-29T11:36:06;22.20;99.90
15765;DHT22;7983;50.744;7.086;2022-10-29T11:38:55;22.30;99.90
15765;DHT22;7983;50.744;7.086;2022-10-29T11:41:39;22.30;99.90
15765;DHT22;7983;50.744;7.086;2022-10-29T11:44:12;22.30;99.90
15765;DHT22;7983;50.744;7.086;2022-10-29T12:00:12;22.70;99.90
15765;DHT22;7983;50.744;7.086;2022-10-29T12:27:21;23.30;99.90
15765;DHT22;7983;50.744;7.086;2022-10-29T12:29:56;23.30;99.90
15765;DHT22;7983;50.744;7.086;2022-10-29T12:40:05;23.30;99.90
15765;DHT22;7983;50.744;7.086;2022-10-29T12:42:36;23.30;99.90
15765;DHT22;7983;50.744;7.086;2022-10-29T12:55:34;23.30;99.90
15765;DHT22;7983;50.744;7.086;2022-10-29T13:01:05;23.30;99.90
15765;DHT22;7983;50.744;7.086;2022-10-29T13:09:23;23.40;99.90
15765;DHT22;7983;50.744;7.086;2022-10-29T13:11:52;23.40;99.90
15765;DHT22;7983;50.744;7.086;2022-10-29T13:16:59;23.40;99.90
15765;DHT22;7983;50.744;7.086;2022-10-29T13:19:48;23.40;99.90
15765;DHT22;7983;50.744;7.086;2022-10-29T13:24:40;23.50;99.90
15765;DHT22;7983;50.744;7.086;2022-10-29T13:29:48;23.50;99.90
15765;DHT22;7983;50.744;7.086;2022-10-29T13:32:29;23.50;99.90
15765;DHT22;7983;50.744;7.086;2022-10-29T13:34:59;23.50;99.90
15765;DHT22;7983;50.744;7.086;2022-10-29T13:45:37;23.50;99.90
15765;DHT22;7983;50.744;7.086;2022-10-29T13:48:18;23.50;99.90
15765;DHT22;7983;50.744;7.086;2022-10-29T13:50:51;23.60;99.90
15765;DHT22;7983;50.744;7.086;2022-10-29T13:53:22;23.60;99.90
15765;DHT22;7983;50.744;7.086;2022-10-29T13:55:49;23.60;99.90
15765;DHT22;7983;50.744;7.086;2022-10-29T13:58:30;23.60;99.90
15765;DHT22;7983;50.744;7.086;2022-10-29T14:00:56;23.60;99.90
15765;DHT22;7983;50.744;7.086;2022-10-29T14:03:30;23.70;99.90
15765;DHT22;7983;50.744;7.086;2022-10-29T14:06:19;23.70;99.90
15765;DHT22;7983;50.744;7.086;2022-10-29T14:11:37;23.70;99.90
15765;DHT22;7983;50.744;7.086;2022-10-29T14:14:04;23.70;99.90
15765;DHT22;7983;50.744;7.086;2022-10-29T14:16:34;23.70;99.90
15765;DHT22;7983;50.744;7.086;2022-10-29T14:19:14;23.70;99.90
15765;DHT22;7983;50.744;7.086;2022-10-29T14:21:50;23.70;99.90
15765;DHT22;7983;50.744;7.086;2022-10-29T14:24:19;23.70;99.90
15765;DHT22;7983;50.744;7.086;2022-10-29T14:26:47;23.70;99.90
15765;DHT22;7983;50.744;7.086;2022-10-29T14:29:18;23.70;99.90
15765;DHT22;7983;50.744;7.086;2022-10-29T14:31:44;23.70;99.90
15765;DHT22;7983;50.744;7.086;2022-10-29T14:34:26;23.70;99.90
15765;DHT22;7983;50.744;7.086;2022-10-29T14:37:01;23.60;99.90
15765;DHT22;7983;50.744;7.086;2022-10-29T14:41:58;23.60;99.90
15765;DHT22;7983;50.744;7.086;2022-10-29T14:44:31;23.50;99.90
15765;DHT22;7983;50.744;7.086;2022-10-29T14:47:03;23.40;99.90
15765;DHT22;7983;50.744;7.086;2022-10-29T14:49:31;23.40;99.90
15765;DHT22;7983;50.744;7.086;2022-10-29T14:54:51;23.30;99.90
15765;DHT22;7983;50.744;7.086;2022-10-29T14:57:21;23.20;99.90
15765;DHT22;7983;50.744;7.086;2022-10-29T14:59:57;23.20;99.90
15765;DHT22;7983;50.744;7.086;2022-10-29T15:02:39;23.10;99.90
15765;DHT22;7983;50.744;7.086;2022-10-29T15:07:49;23.00;99.90
15765;DHT22;7983;50.744;7.086;2022-10-29T15:10:20;23.00;99.90
15765;DHT22;7983;50.744;7.086;2022-10-29T15:12:46;22.90;99.90
15765;DHT22;7983;50.744;7.086;2022-10-29T15:15:27;22.80;99.90
15765;DHT22;7983;50.744;7.086;2022-10-29T15:20:36;22.70;99.90
15765;DHT22;7983;50.744;7.086;2022-10-29T15:23:29;22.60;99.90
15765;DHT22;7983;50.744;7.086;2022-10-29T15:26:08;22.60;99.90
15765;DHT22;7983;50.744;7.086;2022-10-29T15:28:43;22.60;99.90
15765;DHT22;7983;50.744;7.086;2022-10-29T15:34:00;22.40;99.90
15765;DHT22;7983;50.744;7.086;2022-10-29T15:36:54;22.40;99.90
15765;DHT22;7983;50.744;7.086;2022-10-29T15:39:34;22.40;99.90
15765;DHT22;7983;50.744;7.086;2022-10-29T15:42:22;22.30;99.90
15765;DHT22;7983;50.744;7.086;2022-10-29T15:47:34;22.20;99.90
15765;DHT22;7983;50.744;7.086;2022-10-29T15:50:05;22.20;99.90
15765;DHT22;7983;50.744;7.086;2022-10-29T15:52:35;22.10;99.90
15765;DHT22;7983;50.744;7.086;2022-10-29T15:55:30;22.10;99.90
15765;DHT22;7983;50.744;7.086;2022-10-29T15:58:16;22.10;99.90
15765;DHT22;7983;50.744;7.086;2022-10-29T16:00:42;22.00;99.90
15765;DHT22;7983;50.744;7.086;2022-10-29T16:03:12;22.00;99.90
15765;DHT22;7983;50.744;7.086;2022-10-29T16:05:39;21.90;99.90
15765;DHT22;7983;50.744;7.086;2022-10-29T16:11:16;21.90;99.90
15765;DHT22;7983;50.744;7.086;2022-10-29T16:13:44;21.80;99.90
15765;DHT22;7983;50.744;7.086;2022-10-29T16:16:15;21.80;99.90
15765;DHT22;7983;50.744;7.086;2022-10-29T16:18:44;21.70;99.90
15765;DHT22;7983;50.744;7.086;2022-10-29T16:21:20;21.70;99.90
15765;DHT22;7983;50.744;7.086;2022-10-29T16:23:48;21.60;99.90
15765;DHT22;7983;50.744;7.086;2022-10-29T16:26:23;21.60;99.90
15765;DHT22;7983;50.744;7.086;2022-10-29T16:28:49;21.60;99.90
15765;DHT22;7983;50.744;7.086;2022-10-29T16:31:17;21.50;99.90
15765;DHT22;7983;50.744;7.086;2022-10-29T16:33:52;21.50;99.90
15765;DHT22;7983;50.744;7.086;2022-10-29T16:36:17;21.50;99.90
15765;DHT22;7983;50.744;7.086;2022-10-29T16:38:43;21.40;99.90
15765;DHT22;7983;50.744;7.086;2022-10-29T16:41:14;21.40;99.90
15765;DHT22;7983;50.744;7.086;2022-10-29T16:43:40;21.40;99.90
15765;DHT22;7983;50.744;7.086;2022-10-29T16:46:12;21.40;99.90
15765;DHT22;7983;50.744;7.086;2022-10-29T16:48:38;21.40;99.90
15765;DHT22;7983;50.744;7.086;2022-10-29T16:51:04;21.30;99.90
15765;DHT22;7983;50.744;7.086;2022-10-29T16:53:32;21.30;99.90
15765;DHT22;7983;50.744;7.086;2022-10-29T16:55:58;21.20;99.90
15765;DHT22;7983;50.744;7.086;2022-10-29T16:58:24;21.20;99.90
15765;DHT22;7983;50.744;7.086;2022-10-29T17:01:00;21.10;99.90
15765;DHT22;7983;50.744;7.086;2022-10-29T17:03:26;21.10;99.90
15765;DHT22;7983;50.744;7.086;2022-10-29T17:05:52;21.00;99.90
15765;DHT22;7983;50.744;7.086;2022-10-29T17:08:17;21.00;99.90
15765;DHT22;7983;50.744;7.086;2022-10-29T17:10:48;20.90;99.90
15765;DHT22;7983;50.744;7.086;2022-10-29T17:13:13;20.90;99.90
15765;DHT22;7983;50.744;7.086;2022-10-29T17:15:40;20.80;99.90
15765;DHT22;7983;50.744;7.086;2022-10-29T17:18:05;20.80;99.90
15765;DHT22;7983;50.744;7.086;2022-10-29T17:20:31;20.70;99.90
15765;DHT22;7983;50.744;7.086;2022-10-29T17:22:57;20.70;99.90
15765;DHT22;7983;50.744;7.086;2022-10-29T17:25:22;20.60;99.90
15765;DHT22;7983;50.744;7.086;2022-10-29T17:27:48;20.50;99.90
15765;DHT22;7983;50.744;7.086;2022-10-29T17:30:14;20.50;99.90
15765;DHT22;7983;50.744;7.086;2022-10-29T17:32:41;20.40;99.90
15765;DHT22;7983;50.744;7.086;2022-10-29T17:35:07;20.40;99.90
15765;DHT22;7983;50.744;7.086;2022-10-29T17:37:33;20.40;99.90
15765;DHT22;7983;50.744;7.086;2022-10-29T17:39:58;20.40;99.90
15765;DHT22;7983;50.744;7.086;2022-10-29T17:42:24;20.30;99.90
15765;DHT22;7983;50.744;7.086;2022-10-29T17:44:52;20.30;99.90
15765;DHT22;7983;50.744;7.086;2022-10-29T17:47:20;20.30;99.90
15765;DHT22;7983;50.744;7.086;2022-10-29T17:49:47;20.20;99.90
15765;DHT22;7983;50.744;7.086;2022-10-29T17:52:12;20.20;99.90
15765;DHT22;7983;50.744;7.086;2022-10-29T17:54:40;20.20;99.90
15765;DHT22;7983;50.744;7.086;2022-10-29T17:57:08;20.20;99.90
15765;DHT22;7983;50.744;7.086;2022-10-29T17:59:34;20.20;99.90
15765;DHT22;7983;50.744;7.086;2022-10-29T18:01:59;20.20;99.90
15765;DHT22;7983;50.744;7.086;2022-10-29T18:04:25;20.30;99.90
15765;DHT22;7983;50.744;7.086;2022-10-29T18:06:50;20.30;99.90
15765;DHT22;7983;50.744;7.086;2022-10-29T18:09:16;20.30;99.90
15765;DHT22;7983;50.744;7.086;2022-10-29T18:11:54;20.30;99.90
15765;DHT22;7983;50.744;7.086;2022-10-29T18:14:22;20.30;99.90
15765;DHT22;7983;50.744;7.086;2022-10-29T18:16:48;20.30;99.90
15765;DHT22;7983;50.744;7.086;2022-10-29T18:19:13;20.40;99.90
15765;DHT22;7983;50.744;7.086;2022-10-29T18:21:44;20.40;99.90
15765;DHT22;7983;50.744;7.086;2022-10-29T18:24:10;20.40;99.90
15765;DHT22;7983;50.744;7.086;2022-10-29T18:26:35;20.40;99.90
15765;DHT22;7983;50.744;7.086;2022-10-29T18:29:09;20.50;99.90
15765;DHT22;7983;50.744;7.086;2022-10-29T18:31:35;20.50;99.90
15765;DHT22;7983;50.744;7.086;2022-10-29T18:34:03;20.60;99.90
15765;DHT22;7983;50.744;7.086;2022-10-29T18:36:34;20.60;99.90
15765;DHT22;7983;50.744;7.086;2022-10-29T18:39:04;20.60;99.90
15765;DHT22;7983;50.744;7.086;2022-10-29T18:41:30;20.60;99.90
15765;DHT22;7983;50.744;7.086;2022-10-29T18:43:57;20.60;99.90
15765;DHT22;7983;50.744;7.086;2022-10-29T18:46:25;20.60;99.90
15765;DHT22;7983;50.744;7.086;2022-10-29T18:48:51;20.60;99.90
15765;DHT22;7983;50.744;7.086;2022-10-29T18:51:19;20.60;99.90
15765;DHT22;7983;50.744;7.086;2022-10-29T18:53:45;20.70;99.90
15765;DHT22;7983;50.744;7.086;2022-10-29T18:56:13;20.70;99.90
15765;DHT22;7983;50.744;7.086;2022-10-29T18:58:40;20.70;99.90
15765;DHT22;7983;50.744;7.086;2022-10-29T19:01:27;20.70;99.90
15765;DHT22;7983;50.744;7.086;2022-10-29T19:03:59;20.80;99.90
15765;DHT22;7983;50.744;7.086;2022-10-29T19:06:29;20.80;99.90